createdAt,value
2023-06-07T00:02:15.344Z,9.73
2023-06-07T00:07:42.840Z,9.10
2023-06-07T00:10:10.243Z,8.05
2023-06-07T00:12:37.317Z,6.78
2023-06-07T00:15:05.099Z,5.75
2023-06-07T00:17:32.048Z,7.07
2023-06-07T00:19:58.911Z,13.93
2023-06-07T00:58:16.331Z,5.80
2023-06-07T01:00:43.184Z,6.10
2023-06-07T01:03:27.329Z,8.75
2023-06-07T01:05:54.275Z,6.37
2023-06-07T01:08:44.674Z,6.40
2023-06-07T01:16:35.005Z,10.53
2023-06-07T01:19:04.280Z,7.25
2023-06-07T01:21:33.606Z,7.85
2023-06-07T01:24:00.773Z,7.85
2023-06-07T01:26:29.869Z,6.12
2023-06-07T01:29:06.885Z,8.73
2023-06-07T01:31:41.086Z,8.60
2023-06-07T01:34:08.991Z,5.90
2023-06-07T01:36:39.252Z,5.75
2023-06-07T01:39:06.159Z,5.55
2023-06-07T01:41:33.465Z,8.45
2023-06-07T01:44:01.147Z,9.82
2023-06-07T01:46:28.907Z,8.00
2023-06-07T01:48:55.513Z,6.53
2023-06-07T01:51:22.100Z,6.65
2023-06-07T01:53:52.862Z,10.63
2023-06-07T01:56:29.620Z,7.95
2023-06-07T01:59:14.397Z,8.75
2023-06-07T02:01:56.003Z,8.30
2023-06-07T02:04:26.456Z,6.07
2023-06-07T02:06:56.035Z,11.52
2023-06-07T02:09:24.290Z,8.20
2023-06-07T02:11:52.041Z,8.43
2023-06-07T02:14:22.240Z,8.70
2023-06-07T02:16:49.632Z,9.18
2023-06-07T02:19:18.042Z,9.82
2023-06-07T02:21:44.938Z,9.20
2023-06-07T02:24:12.191Z,7.53
2023-06-07T02:26:39.205Z,7.50
2023-06-07T02:29:05.875Z,8.32
2023-06-07T02:31:33.245Z,7.62
2023-06-07T02:33:59.905Z,9.75
2023-06-07T02:36:26.567Z,6.68
2023-06-07T02:38:53.127Z,7.68
2023-06-07T02:41:19.733Z,8.23
2023-06-07T02:43:46.280Z,8.75
2023-06-07T02:48:48.069Z,11.70
2023-06-07T02:51:14.624Z,8.60
2023-06-07T02:53:41.157Z,8.52
2023-06-07T02:56:09.058Z,9.02
2023-06-07T02:58:35.739Z,9.65
2023-06-07T03:05:08.557Z,9.52
2023-06-07T03:07:36.278Z,8.95
2023-06-07T03:10:04.073Z,8.93
2023-06-07T03:12:42.726Z,7.93
2023-06-07T03:15:26.433Z,8.32
2023-06-07T03:17:53.002Z,9.40
2023-06-07T03:40:36.945Z,10.45
2023-06-07T03:43:03.509Z,8.43
2023-06-07T03:45:30.258Z,10.02
2023-06-07T03:47:58.207Z,9.07
2023-06-07T03:50:25.011Z,10.00
2023-06-07T03:52:51.559Z,7.07
2023-06-07T03:57:53.701Z,7.82
2023-06-07T04:00:20.539Z,7.95
2023-06-07T04:02:47.899Z,8.75
2023-06-07T04:07:50.222Z,8.30
2023-06-07T04:15:27.295Z,6.35
2023-06-07T04:17:53.970Z,8.05
2023-06-07T04:20:20.848Z,7.10
2023-06-07T04:22:47.700Z,9.68
2023-06-07T04:25:35.728Z,6.05
2023-06-07T04:28:02.906Z,7.87
2023-06-07T04:30:35.589Z,7.03
2023-06-07T04:33:13.713Z,7.30
2023-06-07T04:35:44.064Z,6.57
2023-06-07T04:38:12.955Z,8.23
2023-06-07T04:40:42.316Z,5.62
2023-06-07T04:43:12.386Z,6.85
2023-06-07T04:45:42.581Z,6.57
2023-06-07T04:48:09.276Z,7.00
2023-06-07T04:50:40.159Z,6.43
2023-06-07T04:53:07.045Z,7.97
2023-06-07T04:55:39.169Z,6.50
2023-06-07T04:58:06.891Z,5.80
2023-06-07T05:00:34.740Z,5.45
2023-06-07T05:03:09.575Z,7.78
2023-06-07T05:05:36.883Z,6.68
2023-06-07T05:08:04.109Z,6.50
2023-06-07T05:10:30.740Z,9.13
2023-06-07T05:12:57.743Z,7.45
2023-06-07T05:15:24.979Z,6.53
2023-06-07T05:17:52.178Z,8.80
2023-06-07T05:20:18.934Z,5.57
2023-06-07T05:22:46.403Z,7.20
2023-06-07T05:25:13.267Z,6.37
2023-06-07T05:27:40.160Z,6.37
2023-06-07T05:30:08.341Z,5.70
2023-06-07T05:32:36.041Z,7.53
2023-06-07T05:35:04.269Z,6.35
2023-06-07T05:37:32.082Z,8.45
2023-06-07T05:39:59.295Z,6.05
2023-06-07T05:42:26.140Z,7.05
2023-06-07T05:44:53.015Z,6.65
2023-06-07T05:47:21.912Z,6.55
2023-06-07T05:49:48.766Z,7.78
2023-06-07T05:52:15.567Z,7.28
2023-06-07T05:54:49.335Z,11.35
2023-06-07T05:57:16.454Z,8.80
2023-06-07T05:59:43.422Z,7.85
2023-06-07T06:02:10.120Z,6.95
2023-06-07T06:04:37.075Z,9.98
2023-06-07T06:07:04.098Z,8.18
2023-06-07T06:12:07.736Z,7.57
2023-06-07T06:14:34.539Z,8.25
2023-06-07T06:17:01.082Z,7.60
2023-06-07T06:19:27.749Z,9.38
2023-06-07T06:21:54.329Z,6.82
2023-06-07T06:25:04.986Z,7.87
2023-06-07T06:30:47.944Z,8.93
2023-06-07T06:33:14.698Z,8.43
2023-06-07T06:35:41.912Z,7.97
2023-06-07T06:38:08.580Z,10.43
2023-06-07T06:40:57.062Z,7.07
2023-06-07T06:43:23.647Z,8.23
2023-06-07T06:45:50.335Z,11.27
2023-06-07T06:48:17.123Z,9.07
2023-06-07T06:50:48.252Z,7.97
2023-06-07T06:53:15.042Z,6.97
2023-06-07T06:56:07.364Z,8.65
2023-06-07T06:58:36.182Z,8.83
2023-06-07T07:01:03.864Z,7.78
2023-06-07T07:03:30.782Z,8.82
2023-06-07T07:09:56.845Z,7.80
2023-06-07T07:12:23.560Z,8.35
2023-06-07T07:14:54.062Z,11.57
2023-06-07T07:17:21.344Z,7.80
2023-06-07T07:19:48.157Z,8.48
2023-06-07T07:22:24.908Z,9.23
2023-06-07T07:24:56.555Z,9.32
2023-06-07T07:27:24.108Z,8.80
2023-06-07T07:29:50.847Z,8.30
2023-06-07T07:32:18.491Z,9.98
2023-06-07T07:34:45.178Z,8.27
2023-06-07T07:37:11.953Z,9.98
2023-06-07T07:42:14.112Z,13.95
2023-06-07T07:44:43.490Z,10.55
2023-06-07T07:47:11.161Z,10.80
2023-06-07T07:49:37.758Z,7.70
2023-06-07T07:52:04.680Z,9.23
2023-06-07T07:55:09.088Z,8.70
2023-06-07T07:58:19.909Z,7.65
2023-06-07T08:03:42.502Z,7.22
2023-06-07T08:06:09.711Z,8.93
2023-06-07T08:08:36.510Z,8.60
2023-06-07T08:11:06.932Z,8.60
2023-06-07T08:13:36.040Z,8.77
2023-06-07T08:16:22.707Z,10.98
2023-06-07T08:19:01.277Z,8.13
2023-06-07T08:21:27.910Z,11.38
2023-06-07T08:26:33.576Z,9.98
2023-06-07T08:29:27.189Z,8.90
2023-06-07T08:31:55.091Z,13.30
2023-06-07T08:34:28.915Z,11.85
2023-06-07T08:36:58.239Z,12.35
2023-06-07T08:45:43.103Z,11.20
2023-06-07T08:48:13.070Z,10.02
2023-06-07T08:50:39.913Z,9.45
2023-06-07T08:53:13.480Z,7.50
2023-06-07T08:55:40.401Z,7.82
2023-06-07T08:58:30.849Z,9.80
2023-06-07T09:00:59.840Z,8.52
2023-06-07T09:03:27.299Z,10.00
2023-06-07T09:05:58.947Z,9.80
2023-06-07T09:12:31.401Z,7.82
2023-06-07T09:14:59.193Z,9.35
2023-06-07T09:17:45.799Z,9.55
2023-06-07T09:20:23.073Z,10.00
2023-06-07T09:23:07.242Z,9.80
2023-06-07T09:25:34.258Z,9.25
2023-06-07T09:28:03.309Z,8.63
2023-06-07T09:30:29.970Z,10.18
2023-06-07T09:32:56.849Z,9.25
2023-06-07T09:35:24.963Z,9.80
2023-06-07T09:37:52.997Z,9.18
2023-06-07T09:40:20.102Z,11.15
2023-06-07T09:45:22.503Z,9.55
2023-06-07T09:47:49.301Z,9.35
2023-06-07T09:50:16.140Z,9.68
2023-06-07T09:52:42.810Z,9.60
2023-06-07T09:55:26.596Z,11.40
2023-06-07T10:02:11.243Z,10.98
2023-06-07T10:04:38.078Z,7.90
2023-06-07T10:07:06.140Z,10.40
2023-06-07T10:09:32.788Z,12.48
2023-06-07T10:12:00.088Z,9.98
2023-06-07T10:17:07.251Z,12.18
2023-06-07T10:19:48.970Z,11.70
2023-06-07T10:22:17.588Z,9.23
2023-06-07T10:25:09.680Z,11.57
2023-06-07T10:27:51.838Z,11.67
2023-06-07T10:30:20.492Z,10.25
2023-06-07T10:32:48.116Z,10.32
2023-06-07T10:35:18.111Z,13.50
2023-06-07T10:37:46.319Z,13.20
2023-06-07T10:40:16.043Z,12.60
2023-06-07T10:42:44.982Z,13.10
2023-06-07T10:45:16.516Z,9.45
2023-06-07T10:47:44.321Z,13.20
2023-06-07T10:50:29.313Z,10.60
2023-06-07T10:53:01.925Z,10.90
2023-06-07T10:58:00.426Z,9.68
2023-06-07T11:00:31.363Z,9.63
2023-06-07T11:03:12.129Z,9.25
2023-06-07T11:05:56.482Z,10.15
2023-06-07T11:08:30.296Z,9.90
2023-06-07T11:11:00.789Z,9.93
2023-06-07T11:13:48.439Z,10.13
2023-06-07T11:16:24.497Z,9.57
2023-06-07T11:18:56.760Z,10.80
2023-06-07T11:21:28.036Z,9.88
2023-06-07T11:24:11.575Z,10.32
2023-06-07T11:26:38.656Z,11.60
2023-06-07T11:29:11.501Z,9.00
2023-06-07T11:31:40.972Z,10.48
2023-06-07T11:34:07.649Z,10.20
2023-06-07T11:36:34.415Z,8.77
2023-06-07T11:39:04.951Z,10.45
2023-06-07T11:41:32.153Z,9.40
2023-06-07T11:44:05.431Z,10.18
2023-06-07T11:46:36.253Z,10.98
2023-06-07T11:49:10.776Z,9.02
2023-06-07T11:51:38.211Z,9.65
2023-06-07T11:54:05.056Z,10.60
2023-06-07T11:56:38.298Z,11.70
2023-06-07T11:59:05.776Z,9.45
2023-06-07T12:01:34.472Z,11.18
2023-06-07T12:04:01.477Z,9.05
2023-06-07T12:06:28.236Z,11.02
2023-06-07T12:08:56.093Z,9.52
2023-06-07T12:11:25.712Z,11.10
2023-06-07T12:14:00.785Z,10.65
2023-06-07T12:16:29.564Z,11.00
2023-06-07T12:18:56.463Z,10.35
2023-06-07T12:24:01.619Z,10.13
2023-06-07T12:26:30.918Z,9.45
2023-06-07T12:33:33.722Z,10.40
2023-06-07T12:36:00.476Z,10.38
2023-06-07T12:38:41.626Z,10.95
2023-06-07T14:53:28.926Z,10.98
2023-06-07T15:10:21.124Z,6.50
2023-06-07T15:12:48.394Z,9.18
2023-06-07T15:15:17.411Z,6.15
2023-06-07T15:17:50.355Z,6.10
2023-06-07T15:20:20.374Z,9.45
2023-06-07T15:22:48.114Z,10.50
2023-06-07T15:30:28.160Z,6.05
2023-06-07T15:32:55.063Z,10.88
2023-06-07T15:35:21.783Z,12.13
2023-06-07T15:37:48.444Z,7.22
2023-06-07T15:40:15.152Z,8.10
2023-06-07T15:42:43.381Z,8.07
2023-06-07T15:45:11.178Z,9.00
2023-06-07T15:47:44.423Z,10.50
2023-06-07T15:50:13.422Z,7.47
2023-06-07T15:52:41.134Z,8.60
2023-06-07T15:55:09.179Z,7.40
2023-06-07T15:57:35.866Z,7.45
2023-06-07T16:00:02.636Z,6.87
2023-06-07T16:02:29.569Z,7.50
2023-06-07T16:04:56.817Z,7.78
2023-06-07T16:07:24.241Z,6.75
2023-06-07T16:09:50.973Z,8.65
2023-06-07T16:12:26.200Z,7.75
2023-06-07T16:15:00.466Z,7.57
2023-06-07T16:17:27.223Z,7.05
2023-06-07T16:19:53.940Z,6.75
2023-06-07T16:22:21.754Z,7.62
2023-06-07T16:25:01.889Z,9.93
2023-06-07T16:27:30.421Z,8.38
2023-06-07T16:29:57.092Z,7.25
2023-06-07T16:32:24.816Z,10.45
2023-06-07T16:35:38.910Z,9.43
2023-06-07T16:43:44.177Z,9.15
2023-06-07T16:46:11.298Z,7.05
2023-06-07T16:48:37.881Z,7.10
2023-06-07T16:51:04.517Z,8.95
2023-06-07T16:53:31.692Z,8.95
2023-06-07T16:55:58.285Z,9.32
2023-06-07T16:58:24.910Z,8.75
2023-06-07T17:01:17.347Z,12.93
2023-06-07T18:09:03.441Z,11.70
2023-06-07T18:11:31.644Z,12.05
2023-06-07T18:13:58.288Z,12.75
2023-06-07T18:16:24.980Z,12.32
2023-06-07T18:18:53.895Z,13.40
2023-06-07T18:24:14.953Z,17.27
2023-06-07T18:26:58.402Z,19.23
2023-06-07T18:29:25.613Z,15.75
2023-06-07T18:31:55.902Z,12.77
2023-06-07T18:39:48.391Z,10.73
2023-06-07T18:48:09.905Z,9.45
2023-06-07T18:50:43.078Z,9.10
2023-06-07T18:53:15.899Z,8.82
2023-06-07T19:00:57.822Z,8.45
2023-06-07T19:09:19.269Z,9.85
2023-06-07T19:11:46.264Z,10.45
2023-06-07T19:14:19.507Z,11.02
2023-06-07T19:16:49.220Z,10.30
2023-06-07T19:19:16.314Z,9.13
2023-06-07T19:21:46.033Z,11.25
2023-06-07T20:01:55.303Z,12.63
2023-06-07T20:04:22.290Z,11.70
2023-06-07T20:07:02.851Z,11.00
2023-06-07T20:09:44.400Z,13.50
2023-06-07T20:12:16.820Z,13.95
2023-06-07T20:22:49.648Z,13.10
2023-06-07T20:30:55.547Z,13.90
2023-06-07T20:34:06.602Z,16.08
2023-06-07T20:53:14.315Z,16.20
2023-06-07T20:55:40.984Z,19.15
2023-06-07T20:58:08.586Z,19.27
2023-06-07T21:00:35.267Z,17.92
2023-06-07T21:09:02.447Z,17.83
2023-06-07T21:11:29.292Z,18.15
2023-06-07T21:14:08.419Z,21.37
2023-06-07T21:16:35.074Z,20.10
2023-06-07T21:19:02.660Z,22.98
2023-06-07T21:21:29.269Z,19.67
2023-06-07T21:23:55.934Z,19.48
2023-06-07T21:26:44.252Z,21.35
2023-06-07T21:29:30.978Z,21.23
2023-06-07T21:31:57.667Z,24.02
2023-06-07T21:34:24.377Z,22.60
2023-06-07T21:36:57.733Z,21.85
2023-06-07T21:39:42.640Z,20.95
2023-06-07T21:45:57.938Z,23.00
2023-06-07T22:44:57.586Z,22.60
2023-06-07T22:47:29.948Z,21.58
2023-06-07T22:50:17.853Z,22.33
2023-06-07T22:52:45.401Z,21.73
2023-06-07T22:55:14.270Z,21.75
2023-06-07T22:57:43.167Z,19.58
2023-06-07T23:00:11.698Z,20.27
2023-06-07T23:02:38.462Z,20.80
2023-06-07T23:05:05.769Z,17.30
2023-06-07T23:07:33.184Z,18.02
2023-06-07T23:09:59.830Z,16.62
2023-06-07T23:12:26.521Z,19.20
2023-06-07T23:14:53.153Z,17.90
2023-06-07T23:17:19.900Z,17.02
2023-06-07T23:19:46.742Z,18.12
2023-06-07T23:22:13.804Z,17.50
2023-06-07T23:24:41.135Z,17.25
2023-06-07T23:27:07.782Z,17.48
2023-06-07T23:29:34.703Z,18.02
2023-06-07T23:32:01.521Z,17.23
2023-06-07T23:34:28.296Z,19.52
2023-06-07T23:36:54.930Z,17.67
2023-06-07T23:39:21.789Z,20.37
2023-06-07T23:41:48.827Z,19.45
2023-06-07T23:44:27.714Z,17.05
2023-06-07T23:46:55.819Z,17.52
2023-06-07T23:49:35.130Z,17.95
2023-06-07T23:52:20.094Z,19.67
2023-06-07T23:54:47.505Z,20.12
2023-06-07T23:57:14.738Z,19.58
2023-06-07T23:59:41.580Z,20.70
